createdAt,value
2023-06-24T00:01:40.671Z,67.53
2023-06-24T00:04:09.597Z,67.49
2023-06-24T00:07:07.397Z,67.30
2023-06-24T00:09:50.802Z,67.36
2023-06-24T00:12:19.707Z,67.52
2023-06-24T00:15:02.857Z,67.41
2023-06-24T00:17:31.602Z,67.32
2023-06-24T00:20:00.444Z,67.40
2023-06-24T00:22:29.243Z,67.42
2023-06-24T00:24:57.854Z,67.29
2023-06-24T00:27:26.622Z,67.35
2023-06-24T00:30:11.864Z,67.24
2023-06-24T00:32:54.837Z,67.20
2023-06-24T00:35:24.103Z,67.19
2023-06-24T00:37:58.573Z,67.22
2023-06-24T00:40:41.499Z,67.24
2023-06-24T00:43:11.519Z,67.22
2023-06-24T00:45:41.026Z,67.23
2023-06-24T00:48:09.991Z,67.19
2023-06-24T00:50:42.584Z,67.20
2023-06-24T00:53:25.413Z,67.12
2023-06-24T00:56:08.297Z,67.10
2023-06-24T00:59:05.423Z,67.18
2023-06-24T01:01:36.086Z,67.11
2023-06-24T01:04:06.154Z,67.04
2023-06-24T01:06:37.473Z,67.03
2023-06-24T01:09:06.447Z,66.98
2023-06-24T01:11:35.267Z,66.94
2023-06-24T01:14:20.542Z,66.94
2023-06-24T01:17:21.401Z,66.87
2023-06-24T01:20:11.262Z,66.78
2023-06-24T01:23:11.349Z,66.80
2023-06-24T01:26:08.873Z,66.80
2023-06-24T01:29:07.164Z,66.94
2023-06-24T01:31:52.246Z,66.91
2023-06-24T01:34:49.340Z,66.92
2023-06-24T01:37:48.064Z,66.82
2023-06-24T01:40:35.431Z,66.78
2023-06-24T01:43:21.614Z,66.77
2023-06-24T01:46:06.221Z,66.74
2023-06-24T01:48:52.302Z,66.79
2023-06-24T01:51:24.835Z,66.74
2023-06-24T01:54:23.368Z,66.81
2023-06-24T01:56:56.461Z,66.78
2023-06-24T01:59:29.144Z,66.82
2023-06-24T02:01:59.954Z,66.78
2023-06-24T02:04:43.168Z,66.81
2023-06-24T02:07:27.667Z,66.91
2023-06-24T02:09:57.763Z,67.00
2023-06-24T02:12:41.305Z,67.01
2023-06-24T02:15:11.431Z,66.94
2023-06-24T02:17:42.974Z,66.98
2023-06-24T02:20:15.455Z,66.98
2023-06-24T02:22:59.804Z,66.96
2023-06-24T02:25:29.262Z,67.16
2023-06-24T02:28:00.220Z,67.13
2023-06-24T02:30:30.511Z,67.23
2023-06-24T02:32:59.334Z,67.29
2023-06-24T02:35:28.085Z,67.30
2023-06-24T02:37:57.119Z,67.39
2023-06-24T02:40:26.635Z,67.39
2023-06-24T02:42:55.498Z,67.47
2023-06-24T02:45:24.731Z,67.35
2023-06-24T02:47:55.221Z,67.43
2023-06-24T02:50:26.350Z,67.40
2023-06-24T02:52:56.028Z,67.43
2023-06-24T02:55:28.658Z,67.31
2023-06-24T02:58:04.199Z,67.40
2023-06-24T03:01:01.920Z,67.33
2023-06-24T03:04:04.026Z,67.41
2023-06-24T03:06:33.959Z,67.49
2023-06-24T03:09:19.622Z,67.53
2023-06-24T03:12:04.181Z,67.52
2023-06-24T03:14:39.496Z,67.59
2023-06-24T03:17:23.022Z,67.51
2023-06-24T03:19:51.718Z,67.54
2023-06-24T03:22:35.049Z,67.63
2023-06-24T03:25:05.142Z,67.59
2023-06-24T03:27:34.539Z,67.63
2023-06-24T03:30:05.739Z,67.72
2023-06-24T03:32:50.778Z,67.69
2023-06-24T03:35:34.528Z,67.61
2023-06-24T03:38:05.864Z,67.60
2023-06-24T03:40:38.386Z,67.64
2023-06-24T03:43:21.748Z,67.75
2023-06-24T03:45:51.690Z,67.77
2023-06-24T03:48:34.773Z,67.81
2023-06-24T03:51:03.697Z,67.82
2023-06-24T03:53:33.620Z,67.82
2023-06-24T03:56:02.516Z,67.71
2023-06-24T03:58:46.156Z,67.81
2023-06-24T04:01:15.041Z,67.76
2023-06-24T04:03:43.775Z,67.87
2023-06-24T04:06:27.317Z,67.92
2023-06-24T04:09:10.647Z,67.76
2023-06-24T04:11:39.369Z,67.78
2023-06-24T04:14:22.290Z,67.87
2023-06-24T04:16:51.284Z,67.77
2023-06-24T04:19:20.090Z,67.86
2023-06-24T04:21:48.762Z,67.90
2023-06-24T04:24:17.384Z,67.86
2023-06-24T04:27:00.359Z,67.80
2023-06-24T04:29:29.209Z,68.10
2023-06-24T04:32:12.264Z,68.12
2023-06-24T04:35:09.772Z,68.07
2023-06-24T04:37:39.164Z,68.05
2023-06-24T04:40:10.112Z,68.10
2023-06-24T04:42:38.814Z,68.11
2023-06-24T04:45:08.531Z,68.27
2023-06-24T04:47:51.943Z,68.32
2023-06-24T04:50:35.109Z,68.35
2023-06-24T04:53:04.046Z,68.48
2023-06-24T04:55:32.962Z,68.43
2023-06-24T04:58:30.843Z,68.49
2023-06-24T05:01:13.785Z,68.50
2023-06-24T05:03:42.771Z,68.46
2023-06-24T05:06:11.629Z,68.39
2023-06-24T05:08:54.974Z,68.37
2023-06-24T05:11:23.700Z,68.31
2023-06-24T05:13:53.273Z,68.24
2023-06-24T05:16:36.520Z,68.17
2023-06-24T05:19:05.329Z,68.06
2023-06-24T05:21:34.046Z,68.21
2023-06-24T05:24:02.883Z,68.19
2023-06-24T05:26:31.846Z,68.10
2023-06-24T05:29:00.590Z,68.16
2023-06-24T05:31:29.668Z,67.96
2023-06-24T05:33:58.448Z,67.80
2023-06-24T05:36:27.206Z,67.81
2023-06-24T05:38:55.881Z,67.62
2023-06-24T05:41:54.520Z,67.57
2023-06-24T05:44:37.772Z,67.33
2023-06-24T05:47:06.693Z,67.24
2023-06-24T05:49:35.429Z,67.32
2023-06-24T05:52:04.724Z,67.15
2023-06-24T05:54:33.462Z,67.06
2023-06-24T05:57:16.440Z,66.96
2023-06-24T05:59:59.333Z,66.93
2023-06-24T06:02:57.011Z,66.97
2023-06-24T06:05:25.923Z,66.97
2023-06-24T06:07:54.823Z,66.87
2023-06-24T06:10:23.545Z,66.73
2023-06-24T06:13:06.904Z,66.67
2023-06-24T06:15:35.787Z,66.52
2023-06-24T06:18:05.239Z,66.50
2023-06-24T06:20:34.016Z,66.46
2023-06-24T06:23:02.751Z,66.18
2023-06-24T06:25:31.588Z,66.36
2023-06-24T06:28:00.287Z,66.26
2023-06-24T06:30:28.971Z,66.13
2023-06-24T06:32:57.676Z,66.10
2023-06-24T06:35:26.420Z,66.05
2023-06-24T06:38:09.806Z,65.98
2023-06-24T06:40:52.942Z,65.96
2023-06-24T06:43:22.689Z,65.87
2023-06-24T06:45:51.724Z,65.88
2023-06-24T06:48:34.593Z,65.85
2023-06-24T06:51:03.492Z,65.58
2023-06-24T06:53:32.251Z,65.68
2023-06-24T06:56:00.999Z,65.56
2023-06-24T06:58:29.985Z,65.70
2023-06-24T07:01:13.204Z,65.43
2023-06-24T07:03:56.630Z,65.39
2023-06-24T07:06:40.242Z,65.22
2023-06-24T07:09:08.993Z,65.22
2023-06-24T07:11:51.986Z,65.27
2023-06-24T07:14:20.710Z,64.95
2023-06-24T07:16:49.907Z,65.02
2023-06-24T07:19:32.801Z,65.00
2023-06-24T07:22:01.554Z,64.72
2023-06-24T07:24:30.443Z,64.68
2023-06-24T07:26:59.245Z,64.54
2023-06-24T07:29:27.923Z,64.37
2023-06-24T07:32:10.896Z,64.15
2023-06-24T07:34:53.727Z,64.07
2023-06-24T07:37:24.803Z,64.15
2023-06-24T07:39:53.952Z,63.94
2023-06-24T07:42:23.968Z,63.86
2023-06-24T07:44:52.810Z,63.73
2023-06-24T07:47:22.280Z,63.74
2023-06-24T07:49:52.015Z,63.30
2023-06-24T07:52:35.069Z,63.32
2023-06-24T07:55:04.736Z,63.52
2023-06-24T07:57:33.617Z,63.38
2023-06-24T08:00:17.629Z,63.30
2023-06-24T08:02:46.415Z,63.18
2023-06-24T08:05:15.172Z,63.11
2023-06-24T08:08:12.268Z,63.05
2023-06-24T08:10:40.962Z,62.89
2023-06-24T08:13:09.937Z,62.62
2023-06-24T08:15:53.271Z,62.56
2023-06-24T08:18:22.003Z,62.22
2023-06-24T08:20:50.866Z,61.91
2023-06-24T08:23:19.633Z,61.68
2023-06-24T08:25:48.867Z,61.45
2023-06-24T08:28:17.591Z,61.36
2023-06-24T08:30:46.336Z,61.27
2023-06-24T08:33:15.020Z,61.41
2023-06-24T08:35:43.868Z,60.94
2023-06-24T08:38:12.674Z,60.85
2023-06-24T08:41:09.779Z,60.58
2023-06-24T08:43:39.437Z,59.93
2023-06-24T08:46:22.352Z,60.57
2023-06-24T08:48:55.149Z,60.46
2023-06-24T08:51:45.226Z,60.11
2023-06-24T08:54:17.153Z,60.03
2023-06-24T08:56:45.982Z,59.90
2023-06-24T08:59:19.633Z,59.86
2023-06-24T09:01:48.465Z,59.82
2023-06-24T09:04:31.547Z,59.86
2023-06-24T09:07:14.619Z,59.58
2023-06-24T09:10:15.179Z,59.52
2023-06-24T09:13:00.390Z,59.50
2023-06-24T09:15:43.342Z,59.35
2023-06-24T09:18:12.427Z,59.33
2023-06-24T09:21:09.594Z,59.31
2023-06-24T09:24:06.747Z,59.35
2023-06-24T09:26:35.428Z,58.83
2023-06-24T09:29:05.657Z,58.85
2023-06-24T09:31:34.473Z,58.88
2023-06-24T09:34:17.700Z,58.29
2023-06-24T09:36:51.483Z,58.41
2023-06-24T09:39:34.915Z,58.22
2023-06-24T09:42:05.569Z,58.14
2023-06-24T09:44:34.893Z,58.04
2023-06-24T09:47:04.242Z,57.98
2023-06-24T09:49:33.025Z,57.72
2023-06-24T09:52:05.468Z,57.76
2023-06-24T09:54:35.161Z,57.53
2023-06-24T09:57:06.104Z,57.78
2023-06-24T09:59:35.636Z,57.54
2023-06-24T10:02:07.558Z,57.46
2023-06-24T10:04:52.485Z,57.53
2023-06-24T10:07:22.242Z,57.42
2023-06-24T10:10:05.315Z,57.16
2023-06-24T10:12:48.690Z,57.10
2023-06-24T10:15:17.571Z,57.13
2023-06-24T10:18:16.611Z,57.22
2023-06-24T10:21:13.968Z,57.27
2023-06-24T10:23:52.129Z,57.22
2023-06-24T10:26:49.501Z,57.10
2023-06-24T10:29:21.386Z,56.98
2023-06-24T10:32:07.952Z,56.96
2023-06-24T10:35:05.575Z,56.84
2023-06-24T10:37:34.989Z,56.43
2023-06-24T10:40:05.937Z,56.27
2023-06-24T10:42:56.545Z,56.36
2023-06-24T10:45:25.306Z,56.42
2023-06-24T10:47:56.874Z,56.42
2023-06-24T10:50:25.917Z,56.15
2023-06-24T10:53:23.827Z,55.78
2023-06-24T10:55:52.570Z,56.04
2023-06-24T10:58:21.366Z,56.17
2023-06-24T11:01:11.519Z,56.05
2023-06-24T11:03:56.221Z,55.70
2023-06-24T11:06:24.052Z,55.95
2023-06-24T11:08:52.855Z,55.56
2023-06-24T11:11:36.434Z,55.61
2023-06-24T11:14:20.293Z,55.64
2023-06-24T11:16:49.034Z,55.70
2023-06-24T11:19:17.889Z,55.16
2023-06-24T11:22:14.952Z,55.44
2023-06-24T11:24:43.800Z,55.54
2023-06-24T11:27:26.849Z,55.23
2023-06-24T11:30:10.405Z,54.82
2023-06-24T11:32:39.906Z,54.91
2023-06-24T11:35:37.732Z,54.73
2023-06-24T11:38:20.619Z,53.72
2023-06-24T11:41:03.521Z,54.15
2023-06-24T11:43:46.464Z,53.46
2023-06-24T11:46:24.625Z,52.22
2023-06-24T11:48:53.659Z,51.38
2023-06-24T11:51:25.115Z,52.59
2023-06-24T11:53:53.824Z,52.06
2023-06-24T11:56:51.286Z,51.50
2023-06-24T11:59:21.842Z,51.58
2023-06-24T12:01:58.464Z,51.53
2023-06-24T12:04:44.449Z,50.75
2023-06-24T12:07:27.803Z,50.83
2023-06-24T12:09:56.485Z,51.13
2023-06-24T12:12:25.544Z,51.16
2023-06-24T12:14:54.742Z,49.72
2023-06-24T12:17:23.602Z,49.99
2023-06-24T12:20:06.644Z,49.70
2023-06-24T12:22:36.089Z,49.41
2023-06-24T12:25:05.582Z,49.76
2023-06-24T12:27:48.584Z,49.67
2023-06-24T12:30:45.690Z,48.90
2023-06-24T12:33:16.484Z,48.30
2023-06-24T12:35:46.096Z,48.92
2023-06-24T12:38:16.404Z,48.33
2023-06-24T12:40:45.574Z,47.79
2023-06-24T12:43:14.961Z,47.97
2023-06-24T12:45:58.365Z,47.10
2023-06-24T12:48:41.808Z,47.01
2023-06-24T12:51:10.489Z,46.83
2023-06-24T12:53:39.336Z,46.72
2023-06-24T12:56:22.598Z,46.66
2023-06-24T12:58:51.466Z,45.97
2023-06-24T13:01:34.387Z,46.70
2023-06-24T13:04:03.273Z,45.51
2023-06-24T13:06:32.046Z,46.19
2023-06-24T13:09:00.821Z,45.63
2023-06-24T13:11:30.031Z,45.99
2023-06-24T13:14:13.069Z,45.21
2023-06-24T13:17:10.626Z,44.77
2023-06-24T13:19:40.155Z,44.62
2023-06-24T13:22:09.952Z,45.13
2023-06-24T13:24:39.761Z,44.49
2023-06-24T13:27:10.117Z,44.02
2023-06-24T13:29:38.948Z,43.98
2023-06-24T13:32:09.201Z,43.58
2023-06-24T13:34:38.053Z,43.74
2023-06-24T13:37:07.154Z,43.99
2023-06-24T13:39:50.035Z,43.24
2023-06-24T13:42:18.846Z,43.63
2023-06-24T13:45:01.743Z,43.61
2023-06-24T13:47:30.703Z,43.60
2023-06-24T13:50:00.035Z,43.50
2023-06-24T13:52:28.811Z,43.16
2023-06-24T13:54:59.580Z,43.27
2023-06-24T13:57:42.577Z,42.86
2023-06-24T14:00:13.730Z,42.99
2023-06-24T14:02:42.704Z,42.99
2023-06-24T14:05:11.741Z,43.09
2023-06-24T14:07:40.528Z,42.52
2023-06-24T14:10:11.297Z,42.25
2023-06-24T14:12:43.365Z,42.20
2023-06-24T14:15:13.530Z,42.12
2023-06-24T14:17:42.239Z,42.33
2023-06-24T14:20:12.681Z,42.17
2023-06-24T14:22:55.569Z,41.97
2023-06-24T14:25:24.579Z,42.07
2023-06-24T14:27:53.400Z,41.84
2023-06-24T14:30:36.926Z,41.88
2023-06-24T14:33:20.135Z,41.94
2023-06-24T14:36:03.234Z,41.96
2023-06-24T14:38:46.260Z,41.78
2023-06-24T14:41:14.997Z,41.93
2023-06-24T14:43:57.957Z,41.72
2023-06-24T14:46:26.941Z,41.36
2023-06-24T14:48:55.717Z,41.44
2023-06-24T14:51:28.136Z,41.46
2023-06-24T14:53:57.267Z,41.86
2023-06-24T14:56:26.150Z,41.85
2023-06-24T14:59:09.192Z,41.97
2023-06-24T15:01:53.531Z,41.83
2023-06-24T15:04:24.156Z,41.87
2023-06-24T15:06:54.574Z,41.77
2023-06-24T15:09:24.784Z,41.69
2023-06-24T15:11:53.805Z,41.85
2023-06-24T15:14:22.905Z,41.88
2023-06-24T15:16:54.305Z,41.66
2023-06-24T15:19:23.257Z,41.90
2023-06-24T15:21:52.387Z,41.86
2023-06-24T15:24:21.337Z,41.69
2023-06-24T15:26:50.125Z,41.70
2023-06-24T15:29:19.021Z,41.72
2023-06-24T15:31:47.861Z,41.56
2023-06-24T15:34:31.589Z,41.51
2023-06-24T15:37:00.494Z,41.69
2023-06-24T15:39:30.310Z,41.87
2023-06-24T15:42:13.269Z,41.70
2023-06-24T15:44:42.907Z,41.78
2023-06-24T15:47:29.166Z,41.75
2023-06-24T15:50:00.973Z,41.78
2023-06-24T15:52:30.112Z,41.38
2023-06-24T15:55:13.098Z,41.51
2023-06-24T15:57:41.816Z,41.61
2023-06-24T16:00:12.513Z,41.47
2023-06-24T16:02:57.086Z,41.42
2023-06-24T16:05:27.081Z,41.52
2023-06-24T16:07:56.208Z,41.27
2023-06-24T16:10:25.230Z,41.43
2023-06-24T16:13:08.688Z,41.62
2023-06-24T16:15:51.838Z,41.61
2023-06-24T16:18:35.353Z,41.65
2023-06-24T16:21:04.250Z,41.64
2023-06-24T16:23:33.211Z,41.64
2023-06-24T16:26:02.754Z,41.58
2023-06-24T16:28:32.087Z,41.47
2023-06-24T16:31:00.875Z,41.56
2023-06-24T16:33:43.890Z,41.77
2023-06-24T16:36:27.403Z,41.70
2023-06-24T16:38:56.164Z,41.65
2023-06-24T16:41:25.130Z,41.89
2023-06-24T16:43:54.509Z,41.85
2023-06-24T16:46:23.994Z,41.86
2023-06-24T16:49:07.310Z,41.84
2023-06-24T16:51:50.226Z,41.62
2023-06-24T16:54:21.735Z,41.87
2023-06-24T16:56:50.462Z,42.01
2023-06-24T16:59:34.654Z,41.81
2023-06-24T17:02:04.126Z,41.74
2023-06-24T17:04:33.290Z,41.97
2023-06-24T17:07:02.629Z,42.18
2023-06-24T17:09:46.864Z,42.08
2023-06-24T17:12:16.477Z,42.22
2023-06-24T17:14:45.918Z,41.98
2023-06-24T17:17:15.431Z,42.37
2023-06-24T17:19:58.834Z,42.25
2023-06-24T17:22:28.387Z,42.36
2023-06-24T17:25:11.341Z,42.23
2023-06-24T17:27:40.331Z,42.41
2023-06-24T17:30:10.582Z,42.46
2023-06-24T17:32:40.441Z,42.56
2023-06-24T17:35:10.227Z,42.64
2023-06-24T17:37:39.799Z,42.69
2023-06-24T17:40:10.948Z,42.72
2023-06-24T17:42:39.940Z,42.74
2023-06-24T17:45:09.867Z,42.82
2023-06-24T17:47:38.639Z,42.96
2023-06-24T17:50:08.450Z,42.86
2023-06-24T17:52:51.338Z,43.03
2023-06-24T17:55:20.568Z,43.02
2023-06-24T17:57:49.313Z,43.06
2023-06-24T18:00:18.576Z,43.19
2023-06-24T18:03:01.725Z,43.29
2023-06-24T18:05:45.850Z,43.37
2023-06-24T18:08:15.357Z,43.41
2023-06-24T18:10:58.793Z,43.54
2023-06-24T18:13:55.996Z,43.72
2023-06-24T18:16:25.177Z,43.75
2023-06-24T18:18:53.973Z,44.10
2023-06-24T18:21:22.797Z,44.24
2023-06-24T18:23:51.516Z,44.57
2023-06-24T18:26:36.462Z,44.80
2023-06-24T18:29:06.209Z,45.04
2023-06-24T18:31:37.412Z,45.31
2023-06-24T18:34:06.561Z,45.90
2023-06-24T18:37:04.588Z,45.79
2023-06-24T18:39:33.548Z,45.97
2023-06-24T18:42:02.312Z,46.27
2023-06-24T18:44:31.440Z,46.41
2023-06-24T18:47:00.228Z,46.63
2023-06-24T18:49:44.363Z,46.89
2023-06-24T18:52:14.227Z,47.05
2023-06-24T18:54:43.941Z,47.18
2023-06-24T18:57:13.787Z,47.75
2023-06-24T18:59:44.794Z,47.72
2023-06-24T19:02:14.664Z,48.06
2023-06-24T19:04:44.414Z,47.89
2023-06-24T19:07:14.246Z,47.96
2023-06-24T19:09:43.881Z,48.29
2023-06-24T19:12:13.412Z,48.40
2023-06-24T19:14:43.849Z,48.45
2023-06-24T19:17:26.907Z,48.65
2023-06-24T19:19:56.954Z,48.59
2023-06-24T19:22:26.820Z,48.93
2023-06-24T19:24:56.727Z,48.89
2023-06-24T19:27:40.556Z,48.96
2023-06-24T19:30:38.816Z,48.90
2023-06-24T19:33:08.410Z,49.20
2023-06-24T19:35:38.575Z,49.11
2023-06-24T19:38:08.421Z,49.26
2023-06-24T19:40:37.674Z,49.44
2023-06-24T19:43:22.174Z,49.57
2023-06-24T19:49:03.092Z,49.74
2023-06-24T19:51:32.132Z,49.89
2023-06-24T19:54:01.035Z,50.08
2023-06-24T19:56:30.030Z,50.16
2023-06-24T19:58:59.389Z,50.13
2023-06-24T20:04:26.311Z,50.31
2023-06-24T20:06:55.656Z,50.50
2023-06-24T20:09:39.290Z,50.50
2023-06-24T20:12:09.829Z,50.65
2023-06-24T20:14:53.099Z,50.73
2023-06-24T20:17:22.065Z,50.76
2023-06-24T20:19:51.033Z,50.74
2023-06-24T20:22:34.420Z,50.91
2023-06-24T20:25:03.418Z,50.95
2023-06-24T20:28:01.024Z,50.95
2023-06-24T20:30:44.302Z,50.95
2023-06-24T20:33:28.598Z,50.94
2023-06-24T20:35:57.943Z,51.15
2023-06-24T20:38:27.294Z,51.16
2023-06-24T20:41:10.300Z,51.27
2023-06-24T20:43:39.675Z,51.18
2023-06-24T20:46:08.444Z,51.32
2023-06-24T20:48:52.264Z,51.31
2023-06-24T20:51:35.927Z,51.44
2023-06-24T20:54:04.892Z,51.43
2023-06-24T20:56:33.713Z,51.57
2023-06-24T20:59:16.705Z,51.62
2023-06-24T21:01:45.632Z,51.61
2023-06-24T21:04:15.507Z,51.85
2023-06-24T21:06:45.113Z,51.79
2023-06-24T21:09:42.286Z,51.96
2023-06-24T21:12:26.020Z,51.82
2023-06-24T21:14:55.213Z,51.95
2023-06-24T21:17:40.162Z,52.01
2023-06-24T21:20:09.129Z,52.07
2023-06-24T21:22:38.054Z,52.06
2023-06-24T21:25:08.047Z,52.16
2023-06-24T21:27:37.144Z,52.25
2023-06-24T21:30:08.169Z,52.30
2023-06-24T21:32:36.984Z,52.34
2023-06-24T21:35:08.029Z,52.39
2023-06-24T21:37:52.036Z,52.50
2023-06-24T21:40:35.533Z,52.55
2023-06-24T21:43:04.780Z,52.53
2023-06-24T21:45:33.483Z,52.54
2023-06-24T21:48:48.806Z,52.49
2023-06-24T21:51:35.252Z,52.58
2023-06-24T21:57:48.739Z,52.71
2023-06-24T22:00:19.178Z,52.87
2023-06-24T22:02:49.441Z,52.89
2023-06-24T22:05:33.155Z,53.00
2023-06-24T22:08:02.688Z,52.98
2023-06-24T22:10:31.424Z,52.88
2023-06-24T22:13:14.407Z,53.02
2023-06-24T22:15:43.425Z,53.05
2023-06-24T22:18:13.432Z,53.05
2023-06-24T22:20:42.340Z,53.13
2023-06-24T22:23:25.649Z,53.18
2023-06-24T22:25:54.968Z,53.12
2023-06-24T22:28:24.026Z,53.19
2023-06-24T22:31:35.860Z,53.25
2023-06-24T22:34:05.388Z,53.21
2023-06-24T22:36:34.141Z,53.33
2023-06-24T22:39:03.038Z,53.32
2023-06-24T22:41:45.933Z,53.38
2023-06-24T22:44:14.789Z,53.50
2023-06-24T22:46:43.637Z,53.37
2023-06-24T22:49:29.103Z,53.41
2023-06-24T22:52:12.560Z,53.36
2023-06-24T22:54:41.668Z,53.37
2023-06-24T22:57:10.451Z,53.42
2023-06-24T22:59:53.366Z,53.43
2023-06-24T23:02:23.649Z,53.47
2023-06-24T23:04:54.506Z,53.51
2023-06-24T23:07:25.761Z,53.58
2023-06-24T23:09:55.252Z,53.69
2023-06-24T23:12:40.845Z,53.64
2023-06-24T23:15:11.457Z,53.65
2023-06-24T23:17:40.893Z,53.67
2023-06-24T23:20:12.392Z,53.66
2023-06-24T23:22:41.722Z,53.76
2023-06-24T23:25:12.101Z,53.86
2023-06-24T23:27:56.869Z,53.81
2023-06-24T23:30:29.341Z,53.88
2023-06-24T23:33:13.612Z,53.91
2023-06-24T23:35:43.073Z,54.00
2023-06-24T23:38:12.671Z,54.03
2023-06-24T23:40:56.251Z,54.07
2023-06-24T23:43:25.776Z,54.11
2023-06-24T23:45:56.006Z,54.27
2023-06-24T23:48:25.031Z,54.30
2023-06-24T23:50:54.074Z,54.41
2023-06-24T23:53:37.212Z,54.49
2023-06-24T23:56:20.593Z,54.39
2023-06-24T23:58:49.290Z,54.59
